sensor_id;sensor_type;location;lat;lon;timestamp;P1;durP1;ratioP1;P2;durP2;ratioP2
5393;SDS011;2720;52.396;10.064;2022-08-19T00:01:42;9.07;;;7.07;;
5393;SDS011;2720;52.396;10.064;2022-08-19T00:04:11;9.63;;;8.00;;
5393;SDS011;2720;52.396;10.064;2022-08-19T00:06:40;10.20;;;7.40;;
5393;SDS011;2720;52.396;10.064;2022-08-19T00:09:10;10.70;;;7.90;;
5393;SDS011;2720;52.396;10.064;2022-08-19T00:11:39;8.23;;;7.30;;
5393;SDS011;2720;52.396;10.064;2022-08-19T00:14:09;15.07;;;7.33;;
5393;SDS011;2720;52.396;10.064;2022-08-19T00:16:38;12.80;;;7.82;;
5393;SDS011;2720;52.396;10.064;2022-08-19T00:19:07;14.70;;;8.23;;
5393;SDS011;2720;52.396;10.064;2022-08-19T00:21:34;13.20;;;7.07;;
5393;SDS011;2720;52.396;10.064;2022-08-19T00:24:03;11.67;;;8.63;;
5393;SDS011;2720;52.396;10.064;2022-08-19T00:26:30;9.83;;;6.73;;
5393;SDS011;2720;52.396;10.064;2022-08-19T00:28:58;11.47;;;7.20;;
5393;SDS011;2720;52.396;10.064;2022-08-19T00:31:27;12.60;;;7.47;;
5393;SDS011;2720;52.396;10.064;2022-08-19T00:33:56;10.93;;;8.20;;
5393;SDS011;2720;52.396;10.064;2022-08-19T00:36:23;15.33;;;8.70;;
5393;SDS011;2720;52.396;10.064;2022-08-19T00:38:50;18.33;;;7.67;;
5393;SDS011;2720;52.396;10.064;2022-08-19T00:41:19;10.23;;;6.90;;
5393;SDS011;2720;52.396;10.064;2022-08-19T00:43:56;16.63;;;8.90;;
5393;SDS011;2720;52.396;10.064;2022-08-19T00:46:25;15.60;;;8.73;;
5393;SDS011;2720;52.396;10.064;2022-08-19T00:48:53;17.10;;;8.63;;
5393;SDS011;2720;52.396;10.064;2022-08-19T00:51:21;17.93;;;8.10;;
5393;SDS011;2720;52.396;10.064;2022-08-19T00:53:50;11.80;;;7.90;;
5393;SDS011;2720;52.396;10.064;2022-08-19T00:56:17;13.57;;;7.70;;
5393;SDS011;2720;52.396;10.064;2022-08-19T00:58:44;15.80;;;8.70;;
5393;SDS011;2720;52.396;10.064;2022-08-19T01:01:11;13.10;;;9.37;;
5393;SDS011;2720;52.396;10.064;2022-08-19T01:03:39;12.80;;;7.77;;
5393;SDS011;2720;52.396;10.064;2022-08-19T01:06:07;11.63;;;7.50;;
5393;SDS011;2720;52.396;10.064;2022-08-19T01:08:35;13.23;;;8.87;;
5393;SDS011;2720;52.396;10.064;2022-08-19T01:11:02;11.80;;;9.03;;
5393;SDS011;2720;52.396;10.064;2022-08-19T01:13:31;15.20;;;9.00;;
5393;SDS011;2720;52.396;10.064;2022-08-19T01:16:01;12.88;;;8.38;;
5393;SDS011;2720;52.396;10.064;2022-08-19T01:18:29;14.63;;;8.40;;
5393;SDS011;2720;52.396;10.064;2022-08-19T01:20:59;12.80;;;8.40;;
5393;SDS011;2720;52.396;10.064;2022-08-19T01:23:32;15.80;;;8.13;;
5393;SDS011;2720;52.396;10.064;2022-08-19T01:26:09;17.90;;;8.60;;
5393;SDS011;2720;52.396;10.064;2022-08-19T01:28:37;18.07;;;8.77;;
5393;SDS011;2720;52.396;10.064;2022-08-19T01:31:05;18.83;;;9.57;;
5393;SDS011;2720;52.396;10.064;2022-08-19T01:33:36;14.30;;;9.18;;
5393;SDS011;2720;52.396;10.064;2022-08-19T01:36:04;15.40;;;9.10;;
5393;SDS011;2720;52.396;10.064;2022-08-19T01:38:35;18.83;;;9.67;;
5393;SDS011;2720;52.396;10.064;2022-08-19T01:41:05;15.07;;;9.33;;
5393;SDS011;2720;52.396;10.064;2022-08-19T01:43:32;22.57;;;9.20;;
5393;SDS011;2720;52.396;10.064;2022-08-19T01:45:59;9.70;;;8.03;;
5393;SDS011;2720;52.396;10.064;2022-08-19T01:48:26;22.90;;;9.63;;
5393;SDS011;2720;52.396;10.064;2022-08-19T01:50:58;13.93;;;8.90;;
5393;SDS011;2720;52.396;10.064;2022-08-19T01:53:25;14.30;;;9.40;;
5393;SDS011;2720;52.396;10.064;2022-08-19T01:55:54;14.93;;;9.03;;
5393;SDS011;2720;52.396;10.064;2022-08-19T01:58:22;13.50;;;9.10;;
5393;SDS011;2720;52.396;10.064;2022-08-19T02:00:49;18.30;;;10.37;;
5393;SDS011;2720;52.396;10.064;2022-08-19T02:03:16;14.77;;;9.63;;
5393;SDS011;2720;52.396;10.064;2022-08-19T02:05:44;15.13;;;9.60;;
5393;SDS011;2720;52.396;10.064;2022-08-19T02:08:11;28.30;;;9.07;;
5393;SDS011;2720;52.396;10.064;2022-08-19T02:10:39;12.17;;;8.30;;
5393;SDS011;2720;52.396;10.064;2022-08-19T02:13:08;19.63;;;9.63;;
5393;SDS011;2720;52.396;10.064;2022-08-19T02:15:37;17.33;;;9.90;;
5393;SDS011;2720;52.396;10.064;2022-08-19T02:18:04;16.90;;;10.30;;
5393;SDS011;2720;52.396;10.064;2022-08-19T02:20:33;13.37;;;9.50;;
5393;SDS011;2720;52.396;10.064;2022-08-19T02:23:00;21.97;;;11.03;;
5393;SDS011;2720;52.396;10.064;2022-08-19T02:25:27;21.17;;;10.20;;
5393;SDS011;2720;52.396;10.064;2022-08-19T02:27:54;15.90;;;9.57;;
5393;SDS011;2720;52.396;10.064;2022-08-19T02:30:23;14.33;;;10.07;;
5393;SDS011;2720;52.396;10.064;2022-08-19T02:32:50;12.73;;;8.63;;
5393;SDS011;2720;52.396;10.064;2022-08-19T02:35:17;13.77;;;9.67;;
5393;SDS011;2720;52.396;10.064;2022-08-19T02:37:44;14.60;;;9.27;;
5393;SDS011;2720;52.396;10.064;2022-08-19T02:40:38;17.50;;;9.40;;
5393;SDS011;2720;52.396;10.064;2022-08-19T02:43:06;12.67;;;8.30;;
5393;SDS011;2720;52.396;10.064;2022-08-19T02:45:36;11.87;;;8.70;;
5393;SDS011;2720;52.396;10.064;2022-08-19T02:48:05;12.90;;;8.83;;
5393;SDS011;2720;52.396;10.064;2022-08-19T02:50:32;13.53;;;9.40;;
5393;SDS011;2720;52.396;10.064;2022-08-19T02:52:59;12.93;;;9.50;;
5393;SDS011;2720;52.396;10.064;2022-08-19T02:55:26;14.53;;;8.33;;
5393;SDS011;2720;52.396;10.064;2022-08-19T02:57:54;13.40;;;9.07;;
5393;SDS011;2720;52.396;10.064;2022-08-19T03:00:22;17.50;;;9.40;;
5393;SDS011;2720;52.396;10.064;2022-08-19T03:02:51;10.83;;;9.23;;
5393;SDS011;2720;52.396;10.064;2022-08-19T03:05:18;14.10;;;8.73;;
5393;SDS011;2720;52.396;10.064;2022-08-19T03:07:45;14.20;;;8.87;;
5393;SDS011;2720;52.396;10.064;2022-08-19T03:10:12;14.13;;;8.87;;
5393;SDS011;2720;52.396;10.064;2022-08-19T03:12:39;18.20;;;9.93;;
5393;SDS011;2720;52.396;10.064;2022-08-19T03:15:07;17.33;;;9.50;;
5393;SDS011;2720;52.396;10.064;2022-08-19T03:17:35;15.55;;;10.88;;
5393;SDS011;2720;52.396;10.064;2022-08-19T03:20:04;18.43;;;10.60;;
5393;SDS011;2720;52.396;10.064;2022-08-19T03:22:31;16.23;;;10.43;;
5393;SDS011;2720;52.396;10.064;2022-08-19T03:24:58;15.00;;;10.10;;
5393;SDS011;2720;52.396;10.064;2022-08-19T03:27:25;16.77;;;10.03;;
5393;SDS011;2720;52.396;10.064;2022-08-19T03:29:52;13.33;;;9.40;;
5393;SDS011;2720;52.396;10.064;2022-08-19T03:32:19;14.40;;;10.80;;
5393;SDS011;2720;52.396;10.064;2022-08-19T03:34:47;13.37;;;9.73;;
5393;SDS011;2720;52.396;10.064;2022-08-19T03:37:15;14.90;;;11.13;;
5393;SDS011;2720;52.396;10.064;2022-08-19T03:39:42;18.13;;;10.23;;
5393;SDS011;2720;52.396;10.064;2022-08-19T03:42:09;16.43;;;10.03;;
5393;SDS011;2720;52.396;10.064;2022-08-19T03:44:37;15.37;;;10.63;;
5393;SDS011;2720;52.396;10.064;2022-08-19T03:47:04;14.97;;;9.57;;
5393;SDS011;2720;52.396;10.064;2022-08-19T03:49:32;17.73;;;10.90;;
5393;SDS011;2720;52.396;10.064;2022-08-19T03:52:00;13.83;;;10.47;;
5393;SDS011;2720;52.396;10.064;2022-08-19T03:54:31;16.73;;;10.37;;
5393;SDS011;2720;52.396;10.064;2022-08-19T03:56:58;16.45;;;10.73;;
5393;SDS011;2720;52.396;10.064;2022-08-19T03:59:26;18.27;;;10.83;;
5393;SDS011;2720;52.396;10.064;2022-08-19T04:01:56;24.33;;;12.50;;
5393;SDS011;2720;52.396;10.064;2022-08-19T04:04:25;18.13;;;11.00;;
5393;SDS011;2720;52.396;10.064;2022-08-19T04:06:52;28.17;;;11.27;;
5393;SDS011;2720;52.396;10.064;2022-08-19T04:09:19;22.47;;;11.90;;
5393;SDS011;2720;52.396;10.064;2022-08-19T04:11:49;17.53;;;10.63;;
5393;SDS011;2720;52.396;10.064;2022-08-19T04:14:19;17.73;;;10.67;;
5393;SDS011;2720;52.396;10.064;2022-08-19T04:16:49;19.43;;;12.50;;
5393;SDS011;2720;52.396;10.064;2022-08-19T04:19:17;18.70;;;12.47;;
5393;SDS011;2720;52.396;10.064;2022-08-19T04:21:48;14.57;;;10.60;;
5393;SDS011;2720;52.396;10.064;2022-08-19T04:24:16;25.30;;;11.60;;
5393;SDS011;2720;52.396;10.064;2022-08-19T04:26:44;16.00;;;11.00;;
5393;SDS011;2720;52.396;10.064;2022-08-19T04:29:15;17.77;;;11.43;;
5393;SDS011;2720;52.396;10.064;2022-08-19T04:31:44;18.80;;;11.30;;
5393;SDS011;2720;52.396;10.064;2022-08-19T04:34:13;20.30;;;10.23;;
5393;SDS011;2720;52.396;10.064;2022-08-19T04:36:42;18.03;;;11.07;;
5393;SDS011;2720;52.396;10.064;2022-08-19T04:39:13;27.83;;;12.90;;
5393;SDS011;2720;52.396;10.064;2022-08-19T04:41:41;16.30;;;11.27;;
5393;SDS011;2720;52.396;10.064;2022-08-19T04:44:27;20.87;;;10.90;;
5393;SDS011;2720;52.396;10.064;2022-08-19T04:46:55;16.60;;;10.73;;
5393;SDS011;2720;52.396;10.064;2022-08-19T04:49:23;23.23;;;10.20;;
5393;SDS011;2720;52.396;10.064;2022-08-19T04:51:51;14.60;;;10.88;;
5393;SDS011;2720;52.396;10.064;2022-08-19T04:54:20;14.80;;;10.83;;
5393;SDS011;2720;52.396;10.064;2022-08-19T04:56:50;16.20;;;9.67;;
5393;SDS011;2720;52.396;10.064;2022-08-19T04:59:18;15.60;;;9.67;;
5393;SDS011;2720;52.396;10.064;2022-08-19T05:01:47;22.33;;;9.38;;
5393;SDS011;2720;52.396;10.064;2022-08-19T05:04:15;14.60;;;10.10;;
5393;SDS011;2720;52.396;10.064;2022-08-19T05:06:44;15.63;;;9.37;;
5393;SDS011;2720;52.396;10.064;2022-08-19T05:09:12;10.23;;;7.97;;
5393;SDS011;2720;52.396;10.064;2022-08-19T05:11:39;14.03;;;9.03;;
5393;SDS011;2720;52.396;10.064;2022-08-19T05:14:06;12.53;;;9.03;;
5393;SDS011;2720;52.396;10.064;2022-08-19T05:16:34;11.07;;;8.73;;
5393;SDS011;2720;52.396;10.064;2022-08-19T05:19:03;20.60;;;9.35;;
5393;SDS011;2720;52.396;10.064;2022-08-19T05:21:47;13.57;;;9.07;;
5393;SDS011;2720;52.396;10.064;2022-08-19T05:24:32;17.93;;;9.40;;
5393;SDS011;2720;52.396;10.064;2022-08-19T05:26:59;15.20;;;9.70;;
5393;SDS011;2720;52.396;10.064;2022-08-19T05:29:28;18.23;;;9.20;;
5393;SDS011;2720;52.396;10.064;2022-08-19T05:31:56;10.80;;;7.73;;
5393;SDS011;2720;52.396;10.064;2022-08-19T05:34:25;14.67;;;9.87;;
5393;SDS011;2720;52.396;10.064;2022-08-19T05:36:53;14.70;;;8.60;;
5393;SDS011;2720;52.396;10.064;2022-08-19T05:39:23;10.20;;;8.07;;
5393;SDS011;2720;52.396;10.064;2022-08-19T05:41:53;14.70;;;8.85;;
5393;SDS011;2720;52.396;10.064;2022-08-19T05:44:23;11.20;;;7.70;;
5393;SDS011;2720;52.396;10.064;2022-08-19T05:46:50;12.23;;;8.05;;
5393;SDS011;2720;52.396;10.064;2022-08-19T05:49:20;19.00;;;8.20;;
5393;SDS011;2720;52.396;10.064;2022-08-19T05:51:49;10.93;;;7.90;;
5393;SDS011;2720;52.396;10.064;2022-08-19T05:54:17;8.23;;;7.43;;
5393;SDS011;2720;52.396;10.064;2022-08-19T05:56:45;17.67;;;7.97;;
5393;SDS011;2720;52.396;10.064;2022-08-19T05:59:13;9.07;;;7.10;;
5393;SDS011;2720;52.396;10.064;2022-08-19T06:01:42;12.63;;;7.90;;
5393;SDS011;2720;52.396;10.064;2022-08-19T06:04:11;14.87;;;7.17;;
5393;SDS011;2720;52.396;10.064;2022-08-19T06:06:39;9.50;;;7.57;;
5393;SDS011;2720;52.396;10.064;2022-08-19T06:09:08;7.70;;;6.70;;
5393;SDS011;2720;52.396;10.064;2022-08-19T06:11:36;9.37;;;7.30;;
5393;SDS011;2720;52.396;10.064;2022-08-19T06:14:06;10.03;;;7.00;;
5393;SDS011;2720;52.396;10.064;2022-08-19T06:16:35;8.53;;;6.43;;
5393;SDS011;2720;52.396;10.064;2022-08-19T06:19:04;11.03;;;6.77;;
5393;SDS011;2720;52.396;10.064;2022-08-19T06:21:33;9.10;;;6.10;;
5393;SDS011;2720;52.396;10.064;2022-08-19T06:24:03;12.93;;;6.80;;
5393;SDS011;2720;52.396;10.064;2022-08-19T06:26:32;9.83;;;6.03;;
5393;SDS011;2720;52.396;10.064;2022-08-19T06:29:00;15.40;;;7.13;;
5393;SDS011;2720;52.396;10.064;2022-08-19T06:31:28;8.90;;;6.37;;
5393;SDS011;2720;52.396;10.064;2022-08-19T06:33:56;7.00;;;5.83;;
5393;SDS011;2720;52.396;10.064;2022-08-19T06:36:24;12.00;;;7.33;;
5393;SDS011;2720;52.396;10.064;2022-08-19T06:38:56;8.10;;;6.10;;
5393;SDS011;2720;52.396;10.064;2022-08-19T06:41:24;8.60;;;7.63;;
5393;SDS011;2720;52.396;10.064;2022-08-19T06:43:53;10.80;;;7.80;;
5393;SDS011;2720;52.396;10.064;2022-08-19T06:46:20;11.50;;;7.33;;
5393;SDS011;2720;52.396;10.064;2022-08-19T06:48:50;10.50;;;6.57;;
5393;SDS011;2720;52.396;10.064;2022-08-19T06:51:18;12.27;;;7.63;;
5393;SDS011;2720;52.396;10.064;2022-08-19T06:53:46;16.43;;;8.17;;
5393;SDS011;2720;52.396;10.064;2022-08-19T06:56:14;14.63;;;9.30;;
5393;SDS011;2720;52.396;10.064;2022-08-19T06:58:42;11.77;;;7.30;;
5393;SDS011;2720;52.396;10.064;2022-08-19T07:01:10;14.00;;;8.10;;
5393;SDS011;2720;52.396;10.064;2022-08-19T07:03:38;10.10;;;6.70;;
5393;SDS011;2720;52.396;10.064;2022-08-19T07:06:06;10.25;;;7.95;;
5393;SDS011;2720;52.396;10.064;2022-08-19T07:08:35;12.43;;;8.10;;
5393;SDS011;2720;52.396;10.064;2022-08-19T07:11:06;11.17;;;7.90;;
5393;SDS011;2720;52.396;10.064;2022-08-19T07:13:34;13.10;;;8.53;;
5393;SDS011;2720;52.396;10.064;2022-08-19T07:16:03;14.73;;;7.73;;
5393;SDS011;2720;52.396;10.064;2022-08-19T07:18:32;11.00;;;7.27;;
5393;SDS011;2720;52.396;10.064;2022-08-19T07:21:04;13.73;;;6.80;;
5393;SDS011;2720;52.396;10.064;2022-08-19T07:39:56;8.10;;;6.55;;
5393;SDS011;2720;52.396;10.064;2022-08-19T07:42:24;10.70;;;5.57;;
5393;SDS011;2720;52.396;10.064;2022-08-19T07:44:51;9.93;;;6.60;;
5393;SDS011;2720;52.396;10.064;2022-08-19T07:47:18;9.10;;;6.47;;
5393;SDS011;2720;52.396;10.064;2022-08-19T07:49:45;10.90;;;6.10;;
5393;SDS011;2720;52.396;10.064;2022-08-19T07:52:13;8.90;;;6.10;;
5393;SDS011;2720;52.396;10.064;2022-08-19T07:54:41;12.80;;;6.67;;
5393;SDS011;2720;52.396;10.064;2022-08-19T07:57:09;12.03;;;5.97;;
5393;SDS011;2720;52.396;10.064;2022-08-19T07:59:37;8.60;;;5.43;;
5393;SDS011;2720;52.396;10.064;2022-08-19T08:02:04;8.70;;;6.50;;
5393;SDS011;2720;52.396;10.064;2022-08-19T08:04:31;12.77;;;6.53;;
5393;SDS011;2720;52.396;10.064;2022-08-19T08:07:17;8.27;;;6.47;;
5393;SDS011;2720;52.396;10.064;2022-08-19T08:10:03;9.10;;;6.63;;
5393;SDS011;2720;52.396;10.064;2022-08-19T08:12:33;10.40;;;6.03;;
5393;SDS011;2720;52.396;10.064;2022-08-19T08:15:05;6.37;;;5.73;;
5393;SDS011;2720;52.396;10.064;2022-08-19T08:17:34;10.80;;;6.13;;
5393;SDS011;2720;52.396;10.064;2022-08-19T08:20:02;11.90;;;6.53;;
5393;SDS011;2720;52.396;10.064;2022-08-19T08:22:31;7.83;;;5.07;;
5393;SDS011;2720;52.396;10.064;2022-08-19T08:25:16;8.60;;;4.47;;
5393;SDS011;2720;52.396;10.064;2022-08-19T08:27:46;6.40;;;5.80;;
5393;SDS011;2720;52.396;10.064;2022-08-19T08:30:15;5.60;;;4.47;;
5393;SDS011;2720;52.396;10.064;2022-08-19T08:32:44;6.60;;;4.50;;
5393;SDS011;2720;52.396;10.064;2022-08-19T08:35:11;9.90;;;4.90;;
5393;SDS011;2720;52.396;10.064;2022-08-19T08:37:40;8.33;;;4.30;;
5393;SDS011;2720;52.396;10.064;2022-08-19T08:40:09;8.50;;;5.27;;
5393;SDS011;2720;52.396;10.064;2022-08-19T08:42:50;7.80;;;5.00;;
5393;SDS011;2720;52.396;10.064;2022-08-19T08:45:23;7.13;;;4.87;;
5393;SDS011;2720;52.396;10.064;2022-08-19T08:47:51;7.10;;;5.40;;
5393;SDS011;2720;52.396;10.064;2022-08-19T08:50:22;8.00;;;5.40;;
5393;SDS011;2720;52.396;10.064;2022-08-19T08:52:55;7.77;;;4.90;;
5393;SDS011;2720;52.396;10.064;2022-08-19T08:55:25;7.00;;;4.40;;
5393;SDS011;2720;52.396;10.064;2022-08-19T08:57:57;4.73;;;3.20;;
5393;SDS011;2720;52.396;10.064;2022-08-19T09:00:28;11.00;;;3.30;;
5393;SDS011;2720;52.396;10.064;2022-08-19T09:02:57;5.67;;;4.87;;
5393;SDS011;2720;52.396;10.064;2022-08-19T09:05:26;7.97;;;4.63;;
5393;SDS011;2720;52.396;10.064;2022-08-19T09:08:07;9.87;;;4.63;;
5393;SDS011;2720;52.396;10.064;2022-08-19T09:10:39;9.93;;;5.10;;
5393;SDS011;2720;52.396;10.064;2022-08-19T09:13:17;7.77;;;5.27;;
5393;SDS011;2720;52.396;10.064;2022-08-19T09:15:53;5.73;;;5.17;;
5393;SDS011;2720;52.396;10.064;2022-08-19T09:18:26;8.40;;;5.23;;
5393;SDS011;2720;52.396;10.064;2022-08-19T09:21:05;6.53;;;4.77;;
5393;SDS011;2720;52.396;10.064;2022-08-19T09:23:32;6.20;;;4.97;;
5393;SDS011;2720;52.396;10.064;2022-08-19T09:25:59;5.87;;;5.27;;
5393;SDS011;2720;52.396;10.064;2022-08-19T09:28:30;9.17;;;5.90;;
5393;SDS011;2720;52.396;10.064;2022-08-19T09:30:57;7.60;;;5.73;;
5393;SDS011;2720;52.396;10.064;2022-08-19T09:33:24;6.50;;;5.00;;
5393;SDS011;2720;52.396;10.064;2022-08-19T09:36:00;5.10;;;4.57;;
5393;SDS011;2720;52.396;10.064;2022-08-19T09:38:29;7.23;;;5.50;;
5393;SDS011;2720;52.396;10.064;2022-08-19T09:41:01;5.80;;;5.20;;
5393;SDS011;2720;52.396;10.064;2022-08-19T09:43:31;7.00;;;4.90;;
5393;SDS011;2720;52.396;10.064;2022-08-19T09:45:59;5.97;;;4.77;;
5393;SDS011;2720;52.396;10.064;2022-08-19T09:48:26;5.80;;;4.57;;
5393;SDS011;2720;52.396;10.064;2022-08-19T09:50:53;6.40;;;4.90;;
5393;SDS011;2720;52.396;10.064;2022-08-19T09:53:20;5.70;;;5.20;;
5393;SDS011;2720;52.396;10.064;2022-08-19T09:55:48;4.47;;;4.07;;
5393;SDS011;2720;52.396;10.064;2022-08-19T09:58:18;7.50;;;5.10;;
5393;SDS011;2720;52.396;10.064;2022-08-19T10:00:46;8.13;;;4.80;;
5393;SDS011;2720;52.396;10.064;2022-08-19T10:03:13;6.80;;;5.30;;
5393;SDS011;2720;52.396;10.064;2022-08-19T10:05:40;8.00;;;4.80;;
5393;SDS011;2720;52.396;10.064;2022-08-19T10:08:15;7.53;;;5.17;;
5393;SDS011;2720;52.396;10.064;2022-08-19T10:10:44;6.10;;;5.03;;
5393;SDS011;2720;52.396;10.064;2022-08-19T10:13:12;10.07;;;5.70;;
5393;SDS011;2720;52.396;10.064;2022-08-19T10:15:40;5.93;;;5.03;;
5393;SDS011;2720;52.396;10.064;2022-08-19T10:18:08;9.47;;;5.57;;
5393;SDS011;2720;52.396;10.064;2022-08-19T10:20:36;7.23;;;5.07;;
5393;SDS011;2720;52.396;10.064;2022-08-19T10:23:03;5.40;;;4.67;;
5393;SDS011;2720;52.396;10.064;2022-08-19T10:25:31;7.27;;;4.10;;
5393;SDS011;2720;52.396;10.064;2022-08-19T10:28:00;7.43;;;4.93;;
5393;SDS011;2720;52.396;10.064;2022-08-19T10:30:27;4.40;;;4.00;;
5393;SDS011;2720;52.396;10.064;2022-08-19T10:32:54;8.80;;;5.33;;
5393;SDS011;2720;52.396;10.064;2022-08-19T10:35:22;4.70;;;4.30;;
5393;SDS011;2720;52.396;10.064;2022-08-19T10:37:51;5.10;;;4.20;;
5393;SDS011;2720;52.396;10.064;2022-08-19T10:40:18;5.00;;;4.43;;
5393;SDS011;2720;52.396;10.064;2022-08-19T10:42:45;7.50;;;4.97;;
5393;SDS011;2720;52.396;10.064;2022-08-19T10:45:12;4.80;;;4.30;;
5393;SDS011;2720;52.396;10.064;2022-08-19T10:47:39;9.00;;;5.50;;
5393;SDS011;2720;52.396;10.064;2022-08-19T10:50:06;5.70;;;5.20;;
5393;SDS011;2720;52.396;10.064;2022-08-19T10:52:52;8.33;;;5.07;;
5393;SDS011;2720;52.396;10.064;2022-08-19T10:55:20;8.57;;;5.33;;
5393;SDS011;2720;52.396;10.064;2022-08-19T10:58:09;5.90;;;4.33;;
5393;SDS011;2720;52.396;10.064;2022-08-19T11:00:38;7.53;;;5.33;;
5393;SDS011;2720;52.396;10.064;2022-08-19T11:03:06;6.33;;;4.73;;
5393;SDS011;2720;52.396;10.064;2022-08-19T11:05:33;8.07;;;5.07;;
5393;SDS011;2720;52.396;10.064;2022-08-19T11:08:02;5.77;;;5.27;;
5393;SDS011;2720;52.396;10.064;2022-08-19T11:10:29;9.30;;;5.40;;
5393;SDS011;2720;52.396;10.064;2022-08-19T11:12:56;8.87;;;5.10;;
5393;SDS011;2720;52.396;10.064;2022-08-19T11:15:23;11.03;;;4.73;;
5393;SDS011;2720;52.396;10.064;2022-08-19T11:17:50;7.70;;;5.70;;
5393;SDS011;2720;52.396;10.064;2022-08-19T11:20:19;7.50;;;4.97;;
5393;SDS011;2720;52.396;10.064;2022-08-19T11:22:46;5.23;;;4.83;;
5393;SDS011;2720;52.396;10.064;2022-08-19T11:25:14;12.10;;;4.83;;
5393;SDS011;2720;52.396;10.064;2022-08-19T11:27:41;4.20;;;3.90;;
5393;SDS011;2720;52.396;10.064;2022-08-19T11:30:10;5.47;;;4.97;;
5393;SDS011;2720;52.396;10.064;2022-08-19T11:32:40;5.07;;;4.40;;
5393;SDS011;2720;52.396;10.064;2022-08-19T11:35:09;7.37;;;5.03;;
5393;SDS011;2720;52.396;10.064;2022-08-19T11:37:37;6.13;;;5.03;;
5393;SDS011;2720;52.396;10.064;2022-08-19T11:40:05;4.93;;;4.43;;
5393;SDS011;2720;52.396;10.064;2022-08-19T11:42:34;8.37;;;4.70;;
5393;SDS011;2720;52.396;10.064;2022-08-19T11:45:18;6.37;;;4.40;;
5393;SDS011;2720;52.396;10.064;2022-08-19T11:47:45;7.57;;;4.23;;
5393;SDS011;2720;52.396;10.064;2022-08-19T11:50:13;4.67;;;4.27;;
5393;SDS011;2720;52.396;10.064;2022-08-19T11:52:40;4.60;;;4.13;;
5393;SDS011;2720;52.396;10.064;2022-08-19T11:55:09;4.20;;;3.80;;
5393;SDS011;2720;52.396;10.064;2022-08-19T11:57:37;5.40;;;3.80;;
5393;SDS011;2720;52.396;10.064;2022-08-19T12:00:06;4.63;;;3.77;;
5393;SDS011;2720;52.396;10.064;2022-08-19T12:02:35;4.53;;;4.13;;
5393;SDS011;2720;52.396;10.064;2022-08-19T12:05:02;4.30;;;3.83;;
5393;SDS011;2720;52.396;10.064;2022-08-19T12:07:29;3.63;;;2.87;;
5393;SDS011;2720;52.396;10.064;2022-08-19T12:09:58;3.53;;;2.77;;
5393;SDS011;2720;52.396;10.064;2022-08-19T12:12:25;5.77;;;3.80;;
5393;SDS011;2720;52.396;10.064;2022-08-19T12:14:54;4.10;;;3.70;;
5393;SDS011;2720;52.396;10.064;2022-08-19T12:17:23;3.00;;;2.70;;
5393;SDS011;2720;52.396;10.064;2022-08-19T12:19:51;3.80;;;2.33;;
5393;SDS011;2720;52.396;10.064;2022-08-19T12:22:19;3.03;;;2.67;;
5393;SDS011;2720;52.396;10.064;2022-08-19T12:24:46;3.23;;;2.93;;
5393;SDS011;2720;52.396;10.064;2022-08-19T12:27:15;3.70;;;3.27;;
5393;SDS011;2720;52.396;10.064;2022-08-19T12:29:42;3.80;;;3.50;;
5393;SDS011;2720;52.396;10.064;2022-08-19T12:32:11;4.50;;;3.20;;
5393;SDS011;2720;52.396;10.064;2022-08-19T12:34:38;4.90;;;3.47;;
5393;SDS011;2720;52.396;10.064;2022-08-19T12:37:05;3.17;;;2.87;;
5393;SDS011;2720;52.396;10.064;2022-08-19T12:39:36;2.50;;;2.40;;
5393;SDS011;2720;52.396;10.064;2022-08-19T12:42:06;2.50;;;2.30;;
5393;SDS011;2720;52.396;10.064;2022-08-19T12:44:37;3.93;;;3.07;;
5393;SDS011;2720;52.396;10.064;2022-08-19T12:47:05;6.90;;;2.80;;
5393;SDS011;2720;52.396;10.064;2022-08-19T12:49:34;3.70;;;2.90;;
5393;SDS011;2720;52.396;10.064;2022-08-19T12:52:02;3.27;;;2.97;;
5393;SDS011;2720;52.396;10.064;2022-08-19T12:54:29;8.00;;;3.10;;
5393;SDS011;2720;52.396;10.064;2022-08-19T12:56:57;2.30;;;2.00;;
5393;SDS011;2720;52.396;10.064;2022-08-19T12:59:24;8.13;;;2.40;;
5393;SDS011;2720;52.396;10.064;2022-08-19T13:01:51;3.23;;;2.50;;
5393;SDS011;2720;52.396;10.064;2022-08-19T13:04:18;3.13;;;2.63;;
5393;SDS011;2720;52.396;10.064;2022-08-19T13:06:47;2.77;;;2.57;;
5393;SDS011;2720;52.396;10.064;2022-08-19T13:09:14;2.53;;;1.87;;
5393;SDS011;2720;52.396;10.064;2022-08-19T13:11:41;2.30;;;1.90;;
5393;SDS011;2720;52.396;10.064;2022-08-19T13:14:08;2.97;;;2.77;;
5393;SDS011;2720;52.396;10.064;2022-08-19T13:16:36;2.47;;;2.37;;
5393;SDS011;2720;52.396;10.064;2022-08-19T13:19:03;2.30;;;1.70;;
5393;SDS011;2720;52.396;10.064;2022-08-19T13:21:31;4.67;;;2.17;;
5393;SDS011;2720;52.396;10.064;2022-08-19T13:23:59;2.90;;;2.67;;
5393;SDS011;2720;52.396;10.064;2022-08-19T13:26:26;2.97;;;2.70;;
5393;SDS011;2720;52.396;10.064;2022-08-19T13:28:53;2.27;;;2.17;;
5393;SDS011;2720;52.396;10.064;2022-08-19T13:31:39;4.17;;;2.20;;
5393;SDS011;2720;52.396;10.064;2022-08-19T13:34:29;7.50;;;2.63;;
5393;SDS011;2720;52.396;10.064;2022-08-19T13:36:58;2.80;;;2.60;;
5393;SDS011;2720;52.396;10.064;2022-08-19T13:39:29;2.77;;;2.67;;
5393;SDS011;2720;52.396;10.064;2022-08-19T13:41:57;2.30;;;1.87;;
5393;SDS011;2720;52.396;10.064;2022-08-19T13:44:26;1.70;;;1.70;;
5393;SDS011;2720;52.396;10.064;2022-08-19T13:46:54;3.33;;;2.83;;
5393;SDS011;2720;52.396;10.064;2022-08-19T13:49:27;2.70;;;2.50;;
5393;SDS011;2720;52.396;10.064;2022-08-19T13:51:56;6.17;;;2.30;;
5393;SDS011;2720;52.396;10.064;2022-08-19T13:54:23;2.40;;;2.20;;
5393;SDS011;2720;52.396;10.064;2022-08-19T13:56:51;2.37;;;2.20;;
5393;SDS011;2720;52.396;10.064;2022-08-19T13:59:18;2.57;;;2.43;;
5393;SDS011;2720;52.396;10.064;2022-08-19T14:01:45;6.70;;;3.33;;
5393;SDS011;2720;52.396;10.064;2022-08-19T14:04:12;2.33;;;2.10;;
5393;SDS011;2720;52.396;10.064;2022-08-19T14:06:39;2.77;;;2.57;;
5393;SDS011;2720;52.396;10.064;2022-08-19T14:09:06;6.60;;;2.40;;
5393;SDS011;2720;52.396;10.064;2022-08-19T14:11:33;6.30;;;2.90;;
5393;SDS011;2720;52.396;10.064;2022-08-19T14:14:01;5.87;;;3.00;;
5393;SDS011;2720;52.396;10.064;2022-08-19T14:16:28;3.63;;;2.40;;
5393;SDS011;2720;52.396;10.064;2022-08-19T14:18:55;1.93;;;1.83;;
5393;SDS011;2720;52.396;10.064;2022-08-19T14:21:23;6.23;;;2.53;;
5393;SDS011;2720;52.396;10.064;2022-08-19T14:23:51;2.50;;;2.30;;
5393;SDS011;2720;52.396;10.064;2022-08-19T14:26:19;2.27;;;2.17;;
5393;SDS011;2720;52.396;10.064;2022-08-19T14:28:47;2.00;;;1.90;;
5393;SDS011;2720;52.396;10.064;2022-08-19T14:31:16;2.50;;;2.30;;
5393;SDS011;2720;52.396;10.064;2022-08-19T14:33:45;2.23;;;2.03;;
5393;SDS011;2720;52.396;10.064;2022-08-19T14:36:12;2.20;;;2.10;;
5393;SDS011;2720;52.396;10.064;2022-08-19T14:38:39;5.73;;;2.20;;
5393;SDS011;2720;52.396;10.064;2022-08-19T14:41:07;2.73;;;2.50;;
5393;SDS011;2720;52.396;10.064;2022-08-19T14:43:36;2.60;;;2.50;;
5393;SDS011;2720;52.396;10.064;2022-08-19T14:46:04;3.47;;;2.80;;
5393;SDS011;2720;52.396;10.064;2022-08-19T14:48:34;2.93;;;2.73;;
5393;SDS011;2720;52.396;10.064;2022-08-19T14:51:03;2.37;;;2.10;;
5393;SDS011;2720;52.396;10.064;2022-08-19T14:53:30;2.97;;;2.03;;
5393;SDS011;2720;52.396;10.064;2022-08-19T14:55:58;8.30;;;2.70;;
5393;SDS011;2720;52.396;10.064;2022-08-19T14:58:26;4.63;;;2.80;;
5393;SDS011;2720;52.396;10.064;2022-08-19T15:00:53;6.27;;;2.53;;
5393;SDS011;2720;52.396;10.064;2022-08-19T15:03:20;2.70;;;2.47;;
5393;SDS011;2720;52.396;10.064;2022-08-19T15:05:50;2.40;;;2.20;;
5393;SDS011;2720;52.396;10.064;2022-08-19T15:08:17;2.60;;;2.23;;
5393;SDS011;2720;52.396;10.064;2022-08-19T15:10:48;5.93;;;2.10;;
5393;SDS011;2720;52.396;10.064;2022-08-19T15:13:15;2.33;;;1.90;;
5393;SDS011;2720;52.396;10.064;2022-08-19T15:15:42;2.47;;;2.27;;
5393;SDS011;2720;52.396;10.064;2022-08-19T15:18:10;6.23;;;2.20;;
5393;SDS011;2720;52.396;10.064;2022-08-19T15:20:38;8.53;;;2.73;;